Time;durP1;ratioP1;P1;durP2;ratioP2;P2;SDS_P1;SDS_P2;PMS_P1;PMS_P2;Temp;Humidity;BMP_temperature;BMP_pressure;BME280_temperature;BME280_humidity;BME280_pressure;Samples;Min_cycle;Max_cycle;Signal;HPM_P1;HPM_P2
2022/03/08 00:01:11;;;;;;;0.90;0.85;;;0.00;90.80;;;;;;5062789;28;20236;-84
2022/03/08 00:03:38;;;;;;;0.30;0.10;;;-0.20;91.10;;;;;;5061328;28;20194;-84
2022/03/08 00:06:05;;;;;;;1.27;0.65;;;-0.20;91.50;;;;;;5066027;28;20203;-85
2022/03/08 00:08:32;;;;;;;0.30;0.10;;;-0.20;91.40;;;;;;5068810;28;20283;-83
2022/03/08 00:11:03;;;;;;;0.30;0.10;;;-0.20;91.20;;;;;;5067118;28;20224;-84
2022/03/08 00:13:29;;;;;;;0.30;0.20;;;-0.20;91.20;;;;;;5062598;28;20284;-84
2022/03/08 00:15:56;;;;;;;0.30;0.20;;;-0.20;91.20;;;;;;5062671;28;20253;-83
2022/03/08 00:18:23;;;;;;;0.30;0.10;;;-0.20;90.90;;;;;;5062892;28;20206;-82
2022/03/08 00:20:50;;;;;;;1.67;0.85;;;-0.20;90.60;;;;;;5062873;28;20601;-83
2022/03/08 00:23:17;;;;;;;0.35;0.17;;;-0.20;90.10;;;;;;5070214;28;20211;-83
2022/03/08 00:25:44;;;;;;;0.55;0.55;;;-0.30;90.10;;;;;;5061816;28;20229;-83
2022/03/08 00:28:12;;;;;;;0.30;0.10;;;-0.20;90.00;;;;;;5065290;28;20621;-84
2022/03/08 00:30:40;;;;;;;0.30;0.20;;;-0.30;90.00;;;;;;5062940;28;20224;-84
2022/03/08 00:33:07;;;;;;;0.30;0.20;;;-0.30;89.40;;;;;;5068923;28;20240;-84
2022/03/08 00:35:34;;;;;;;0.30;0.20;;;-0.30;89.40;;;;;;5065422;28;20745;-83
2022/03/08 00:38:01;;;;;;;0.30;0.10;;;-0.30;89.10;;;;;;5063288;28;20251;-82
2022/03/08 00:40:28;;;;;;;0.30;0.20;;;-0.30;89.60;;;;;;5061675;28;20224;-83
2022/03/08 00:42:55;;;;;;;0.30;0.20;;;-0.20;89.70;;;;;;5067018;28;20233;-83
2022/03/08 00:45:24;;;;;;;0.40;0.40;;;-0.20;89.90;;;;;;5066752;28;20238;-83
2022/03/08 00:47:50;;;;;;;0.30;0.10;;;-0.20;89.10;;;;;;5063006;28;20196;-83
2022/03/08 00:50:20;;;;;;;0.30;0.15;;;-0.20;89.60;;;;;;5061731;28;20249;-83
2022/03/08 00:52:48;;;;;;;0.30;0.10;;;-0.20;89.50;;;;;;5067029;28;20202;-84
2022/03/08 00:55:18;;;;;;;0.50;0.45;;;-0.20;89.70;;;;;;5067638;28;20197;-83
2022/03/08 00:57:45;;;;;;;0.30;0.10;;;-0.30;89.90;;;;;;5067927;28;20585;-83
2022/03/08 01:00:15;;;;;;;0.30;0.10;;;-0.20;90.00;;;;;;5065537;28;20235;-84
2022/03/08 01:02:44;;;;;;;0.30;0.10;;;-0.20;89.80;;;;;;5067604;28;20197;-83
2022/03/08 01:05:11;;;;;;;0.30;0.10;;;-0.10;89.70;;;;;;5059368;28;20226;-83
2022/03/08 01:07:39;;;;;;;0.95;0.95;;;-0.20;89.60;;;;;;5067830;28;20288;-83
2022/03/08 01:10:08;;;;;;;0.30;0.20;;;-0.20;89.20;;;;;;5065017;28;20312;-83
2022/03/08 01:12:35;;;;;;;0.30;0.10;;;-0.10;88.90;;;;;;5062617;28;20199;-83
2022/03/08 01:15:04;;;;;;;0.45;0.38;;;-0.20;90.00;;;;;;5063059;28;20633;-83
2022/03/08 01:17:31;;;;;;;0.40;0.35;;;-0.20;89.20;;;;;;5062619;28;20612;-83
2022/03/08 01:20:00;;;;;;;0.30;0.10;;;-0.20;89.70;;;;;;5066969;28;20209;-84
2022/03/08 01:22:26;;;;;;;0.60;0.32;;;-0.20;88.60;;;;;;5071595;28;20508;-84
2022/03/08 01:24:54;;;;;;;2.45;1.95;;;-0.30;88.90;;;;;;5063110;28;20229;-83
2022/03/08 01:27:21;;;;;;;0.30;0.10;;;-0.30;88.90;;;;;;5064166;28;20728;-83
2022/03/08 01:29:48;;;;;;;0.30;0.10;;;-0.30;88.70;;;;;;5066723;28;20353;-85
2022/03/08 01:32:14;;;;;;;0.30;0.10;;;-0.30;88.10;;;;;;5059874;28;20257;-83
2022/03/08 01:34:42;;;;;;;0.43;0.43;;;-0.30;87.80;;;;;;5059439;28;20680;-84
2022/03/08 01:37:11;;;;;;;0.30;0.20;;;-0.30;89.00;;;;;;5067285;28;20234;-84
2022/03/08 01:39:38;;;;;;;2.25;0.75;;;-0.30;89.90;;;;;;5065339;28;20202;-83
2022/03/08 01:42:09;;;;;;;0.30;0.20;;;-0.40;90.10;;;;;;5063141;28;20282;-83
2022/03/08 01:44:36;;;;;;;0.30;0.20;;;-0.40;90.10;;;;;;5062318;28;20264;-84
2022/03/08 01:47:03;;;;;;;2.38;1.75;;;-0.40;90.10;;;;;;5064343;28;20263;-83
2022/03/08 01:49:30;;;;;;;0.50;0.45;;;-0.30;89.70;;;;;;5065286;28;20225;-83
2022/03/08 01:51:57;;;;;;;0.30;0.10;;;-0.30;88.80;;;;;;5065583;28;20195;-84
2022/03/08 01:54:26;;;;;;;0.30;0.10;;;-0.40;89.30;;;;;;5067478;28;20255;-84
2022/03/08 01:56:53;;;;;;;0.30;0.10;;;-0.30;90.00;;;;;;5064863;28;20233;-84
2022/03/08 01:59:20;;;;;;;0.30;0.10;;;-0.30;90.00;;;;;;5064439;28;20233;-83
2022/03/08 02:01:47;;;;;;;0.30;0.10;;;-0.40;90.20;;;;;;5063969;28;20546;-82
2022/03/08 02:04:14;;;;;;;0.45;0.45;;;-0.40;90.40;;;;;;5060102;28;20199;-84
2022/03/08 02:06:40;;;;;;;0.30;0.10;;;-0.40;90.40;;;;;;5066097;28;20229;-83
2022/03/08 02:09:07;;;;;;;0.30;0.20;;;-0.40;90.70;;;;;;5065196;28;20291;-85
2022/03/08 02:11:37;;;;;;;0.40;0.20;;;-0.50;90.70;;;;;;5063573;28;20276;-83
2022/03/08 02:14:04;;;;;;;0.40;0.40;;;-0.50;90.80;;;;;;5062620;28;20277;-83
2022/03/08 02:16:31;;;;;;;0.57;0.52;;;-0.60;90.90;;;;;;5059820;28;20262;-84
2022/03/08 02:18:58;;;;;;;2.78;0.50;;;-0.70;90.90;;;;;;5067415;28;20210;-84
2022/03/08 02:21:28;;;;;;;0.30;0.10;;;-0.80;90.80;;;;;;5071671;28;20256;-85
2022/03/08 02:23:55;;;;;;;0.30;0.10;;;-1.00;91.10;;;;;;5067689;28;20203;-84
2022/03/08 02:26:22;;;;;;;0.73;0.73;;;-1.00;91.20;;;;;;5061605;28;20260;-84
2022/03/08 02:28:49;;;;;;;0.82;0.77;;;-1.10;91.30;;;;;;5066762;28;20203;-83
2022/03/08 02:31:17;;;;;;;0.95;0.95;;;-1.20;91.50;;;;;;5063546;28;20245;-83
2022/03/08 02:33:44;;;;;;;0.30;0.10;;;-1.20;91.70;;;;;;5069536;28;20194;-84
2022/03/08 02:36:11;;;;;;;0.30;0.10;;;-1.20;91.80;;;;;;5072784;28;20198;-83
2022/03/08 02:38:40;;;;;;;0.30;0.10;;;-1.30;91.80;;;;;;5074615;28;20199;-83
2022/03/08 02:41:07;;;;;;;0.30;0.20;;;-1.50;92.20;;;;;;5070949;28;20205;-83
2022/03/08 02:43:34;;;;;;;2.53;0.52;;;-1.40;92.30;;;;;;5072351;28;20208;-82
2022/03/08 02:46:01;;;;;;;0.30;0.10;;;-1.40;92.50;;;;;;5067422;28;20197;-83
2022/03/08 02:48:29;;;;;;;0.30;0.10;;;-1.50;93.00;;;;;;5074174;28;20283;-85
2022/03/08 02:50:56;;;;;;;0.30;0.10;;;-1.50;93.20;;;;;;5071435;28;20253;-83
2022/03/08 02:53:23;;;;;;;0.30;0.10;;;-1.50;93.40;;;;;;5073706;28;20258;-84
2022/03/08 02:55:52;;;;;;;0.30;0.10;;;-1.50;93.50;;;;;;5071312;28;20259;-85
2022/03/08 02:58:19;;;;;;;0.30;0.10;;;-1.50;93.80;;;;;;5065763;28;20289;-83
2022/03/08 03:00:47;;;;;;;0.30;0.10;;;-1.50;93.70;;;;;;5065072;28;20234;-85
2022/03/08 03:03:14;;;;;;;0.40;0.20;;;-1.60;94.20;;;;;;5063371;28;20201;-83
2022/03/08 03:05:41;;;;;;;0.30;0.10;;;-1.50;94.50;;;;;;5064270;28;20625;-84
2022/03/08 03:08:10;;;;;;;1.17;1.17;;;-1.60;94.60;;;;;;5062906;28;20580;-83
2022/03/08 03:10:37;;;;;;;0.30;0.10;;;-1.70;94.90;;;;;;5070583;28;20221;-82
2022/03/08 03:13:05;;;;;;;2.60;1.15;;;-1.70;95.20;;;;;;5073239;28;20241;-83
2022/03/08 03:15:32;;;;;;;0.30;0.10;;;-1.80;95.80;;;;;;5065973;28;20237;-85
2022/03/08 03:18:00;;;;;;;0.30;0.10;;;-1.80;96.10;;;;;;5072703;28;20221;-84
2022/03/08 03:20:28;;;;;;;0.30;0.20;;;-1.90;96.30;;;;;;5071927;28;20202;-82
2022/03/08 03:22:55;;;;;;;0.30;0.10;;;-1.80;96.30;;;;;;5073654;28;20198;-82
2022/03/08 03:25:22;;;;;;;0.30;0.10;;;-1.90;96.20;;;;;;5072047;28;20205;-82
2022/03/08 03:27:49;;;;;;;0.30;0.10;;;-2.00;96.40;;;;;;5071993;28;20268;-81
2022/03/08 03:30:19;;;;;;;0.30;0.20;;;-1.90;96.60;;;;;;5067303;28;20221;-81
2022/03/08 03:32:47;;;;;;;0.40;0.30;;;-2.00;96.60;;;;;;5063011;28;20229;-82
2022/03/08 03:35:14;;;;;;;0.43;0.40;;;-2.00;96.70;;;;;;5062005;28;20202;-81
2022/03/08 03:37:42;;;;;;;0.30;0.10;;;-2.00;97.00;;;;;;5073470;28;20276;-85
2022/03/08 03:40:10;;;;;;;0.30;0.10;;;-2.10;97.10;;;;;;5068592;28;20259;-83
2022/03/08 03:42:37;;;;;;;0.30;0.10;;;-2.10;97.40;;;;;;5067892;28;20250;-84
2022/03/08 03:45:05;;;;;;;0.30;0.10;;;-2.10;97.50;;;;;;5067051;28;20210;-82
2022/03/08 03:47:33;;;;;;;0.30;0.10;;;-2.10;97.70;;;;;;5070043;28;20198;-82
2022/03/08 03:50:00;;;;;;;0.30;0.10;;;-2.10;97.70;;;;;;5062484;28;20222;-82
2022/03/08 03:52:27;;;;;;;0.30;0.10;;;-2.10;97.80;;;;;;5070191;28;20194;-82
2022/03/08 03:54:54;;;;;;;3.05;2.38;;;-2.10;98.10;;;;;;5064624;28;20493;-82
2022/03/08 03:57:21;;;;;;;0.30;0.20;;;-2.10;98.20;;;;;;5063348;28;20664;-82
2022/03/08 03:59:48;;;;;;;0.30;0.10;;;-2.10;99.10;;;;;;5065433;28;20737;-82
2022/03/08 04:02:15;;;;;;;3.20;2.47;;;-2.20;99.60;;;;;;5066370;28;20260;-82
2022/03/08 04:04:43;;;;;;;0.50;0.50;;;-2.20;99.70;;;;;;5064587;28;20197;-84
2022/03/08 04:07:10;;;;;;;0.30;0.10;;;-2.30;99.90;;;;;;5068106;28;20236;-83
2022/03/08 04:09:37;;;;;;;0.57;0.52;;;-2.40;99.90;;;;;;5066176;28;20198;-83
2022/03/08 04:12:05;;;;;;;0.30;0.10;;;-2.30;99.90;;;;;;5067060;28;20236;-83
2022/03/08 04:14:32;;;;;;;0.30;0.10;;;-2.30;99.90;;;;;;5068177;28;20661;-83
2022/03/08 04:16:59;;;;;;;0.40;0.32;;;-2.40;99.90;;;;;;5071048;28;20265;-85
2022/03/08 04:19:26;;;;;;;0.30;0.10;;;-2.50;99.90;;;;;;5064449;28;20201;-83
2022/03/08 04:21:55;;;;;;;0.30;0.10;;;-2.60;99.90;;;;;;5067730;28;20210;-83
2022/03/08 04:24:22;;;;;;;0.73;0.73;;;-2.70;99.90;;;;;;5066088;28;20194;-84
2022/03/08 04:26:49;;;;;;;0.30;0.10;;;-2.70;99.90;;;;;;5066279;28;20197;-83
2022/03/08 04:29:16;;;;;;;0.30;0.20;;;-2.70;99.90;;;;;;5063601;28;20267;-83
2022/03/08 04:31:42;;;;;;;0.95;0.95;;;-2.80;99.90;;;;;;5062995;28;20603;-83
2022/03/08 04:34:09;;;;;;;0.30;0.10;;;-2.80;99.90;;;;;;5062660;28;20285;-84
2022/03/08 04:36:36;;;;;;;0.30;0.10;;;-2.80;99.90;;;;;;5063623;28;20193;-84
2022/03/08 04:39:05;;;;;;;0.30;0.17;;;-2.70;99.90;;;;;;5066517;28;20205;-84
2022/03/08 04:41:32;;;;;;;0.30;0.20;;;-2.80;99.90;;;;;;5067342;28;20654;-86
2022/03/08 04:43:59;;;;;;;0.30;0.10;;;-2.90;99.90;;;;;;5066935;28;20202;-85
2022/03/08 04:46:26;;;;;;;0.30;0.10;;;-2.90;99.90;;;;;;5066013;28;20263;-84
2022/03/08 04:48:53;;;;;;;0.30;0.10;;;-3.00;99.90;;;;;;5065174;28;20247;-83
2022/03/08 04:51:20;;;;;;;0.30;0.20;;;-3.00;99.90;;;;;;5068521;28;20224;-87
2022/03/08 04:53:47;;;;;;;0.30;0.10;;;-3.20;99.90;;;;;;5065638;28;20205;-86
2022/03/08 04:56:22;;;;;;;0.30;0.10;;;-3.20;99.90;;;;;;5059468;28;20256;-85
2022/03/08 04:58:49;;;;;;;0.50;0.30;;;-3.20;99.90;;;;;;5061659;28;20586;-85
2022/03/08 05:01:16;;;;;;;1.15;1.15;;;-3.30;99.90;;;;;;5065817;28;20287;-85
2022/03/08 05:03:43;;;;;;;0.30;0.10;;;-3.20;99.90;;;;;;5062956;28;20720;-87
2022/03/08 05:06:10;;;;;;;0.30;0.20;;;-3.30;99.90;;;;;;5066435;28;20295;-84
2022/03/08 05:08:38;;;;;;;0.30;0.10;;;-3.30;99.90;;;;;;5064516;28;20263;-86
2022/03/08 05:11:04;;;;;;;0.30;0.10;;;-3.40;99.90;;;;;;5068634;28;20315;-85
2022/03/08 05:13:33;;;;;;;0.30;0.20;;;-3.30;99.90;;;;;;5062671;28;20874;-84
2022/03/08 05:16:01;;;;;;;0.30;0.20;;;-3.40;99.90;;;;;;5065677;28;20645;-85
2022/03/08 05:18:27;;;;;;;0.30;0.10;;;-3.50;99.90;;;;;;5062090;28;20613;-85
2022/03/08 05:20:54;;;;;;;0.90;0.90;;;-3.50;99.90;;;;;;5062800;28;20742;-84
2022/03/08 05:23:21;;;;;;;0.30;0.10;;;-3.60;99.90;;;;;;5065426;28;20201;-85
2022/03/08 05:25:48;;;;;;;0.30;0.20;;;-3.60;99.90;;;;;;5063096;28;20224;-86
2022/03/08 05:28:16;;;;;;;0.30;0.10;;;-3.60;99.90;;;;;;5063909;28;20208;-84
2022/03/08 05:30:45;;;;;;;0.57;0.32;;;-3.70;99.90;;;;;;5062319;28;20274;-90
2022/03/08 05:33:12;;;;;;;0.30;0.10;;;-3.70;99.90;;;;;;5051717;28;20197;-88
2022/03/08 05:35:39;;;;;;;0.30;0.20;;;-3.70;99.90;;;;;;5063209;28;20722;-85
2022/03/08 05:38:06;;;;;;;0.30;0.10;;;-3.70;99.90;;;;;;5051063;28;20708;-84
2022/03/08 05:40:33;;;;;;;0.30;0.20;;;-3.80;99.90;;;;;;5061277;28;20247;-83
2022/03/08 05:43:01;;;;;;;1.15;0.63;;;-3.70;99.90;;;;;;5054174;28;20205;-83
2022/03/08 05:45:29;;;;;;;0.30;0.20;;;-3.70;99.90;;;;;;5054287;28;20208;-82
2022/03/08 05:47:58;;;;;;;1.27;1.27;;;-3.70;99.90;;;;;;5063381;28;20197;-82
2022/03/08 05:50:25;;;;;;;1.23;0.65;;;-3.70;99.90;;;;;;5053770;28;20255;-84
2022/03/08 05:52:52;;;;;;;0.30;0.10;;;-3.70;99.90;;;;;;5054005;28;21078;-84
2022/03/08 05:55:19;;;;;;;5.10;1.35;;;-3.70;99.90;;;;;;5062246;28;20233;-84
2022/03/08 05:57:46;;;;;;;0.30;0.10;;;-3.70;99.90;;;;;;5056186;28;20337;-84
2022/03/08 06:00:14;;;;;;;0.30;0.10;;;-3.70;99.90;;;;;;5049074;28;20226;-84
2022/03/08 06:02:42;;;;;;;0.30;0.10;;;-3.60;99.90;;;;;;5049609;28;20237;-81
2022/03/08 06:05:11;;;;;;;0.30;0.20;;;-3.50;99.90;;;;;;5067881;28;20296;-83
2022/03/08 06:07:38;;;;;;;0.40;0.22;;;-3.40;99.90;;;;;;5067828;28;20624;-82
2022/03/08 06:10:08;;;;;;;0.30;0.20;;;-3.30;99.90;;;;;;5059284;28;20206;-83
2022/03/08 06:12:35;;;;;;;0.30;0.20;;;-3.10;99.90;;;;;;5068518;28;20237;-84
2022/03/08 06:15:02;;;;;;;0.75;0.75;;;-3.10;99.90;;;;;;5070611;28;20753;-84
2022/03/08 06:17:29;;;;;;;0.30;0.10;;;-3.00;99.90;;;;;;5061728;28;20240;-82
2022/03/08 06:19:56;;;;;;;0.30;0.10;;;-2.80;99.90;;;;;;5057168;28;20233;-83
2022/03/08 06:22:24;;;;;;;0.30;0.10;;;-2.70;99.90;;;;;;5062288;28;20249;-83
2022/03/08 06:24:52;;;;;;;0.30;0.10;;;-2.60;99.90;;;;;;5062694;28;20245;-83
2022/03/08 06:27:19;;;;;;;0.30;0.10;;;-2.40;99.90;;;;;;5065144;28;20255;-85
2022/03/08 06:29:47;;;;;;;0.40;0.30;;;-2.30;99.90;;;;;;5064643;28;20259;-83
2022/03/08 06:32:14;;;;;;;0.30;0.10;;;-2.20;99.90;;;;;;5063176;28;20261;-84
2022/03/08 06:34:41;;;;;;;0.30;0.10;;;-2.20;99.90;;;;;;5054522;28;20233;-85
2022/03/08 06:37:07;;;;;;;0.30;0.10;;;-2.20;99.90;;;;;;5049542;28;20665;-85
2022/03/08 06:39:36;;;;;;;0.47;0.47;;;-2.10;99.90;;;;;;5062310;28;20201;-83
2022/03/08 06:42:04;;;;;;;0.30;0.10;;;-2.10;99.90;;;;;;5068218;28;20286;-83
2022/03/08 06:44:31;;;;;;;0.30;0.20;;;-2.00;99.90;;;;;;5053912;28;20206;-83
2022/03/08 06:46:58;;;;;;;0.30;0.10;;;-2.20;99.90;;;;;;5054678;28;20221;-85
2022/03/08 06:49:25;;;;;;;0.30;0.20;;;-2.20;99.90;;;;;;5068154;28;20206;-85
2022/03/08 06:51:52;;;;;;;0.82;0.82;;;-2.10;99.90;;;;;;5067493;28;20232;-84
2022/03/08 06:54:19;;;;;;;0.30;0.10;;;-2.00;99.90;;;;;;5062901;28;20198;-88
2022/03/08 06:56:48;;;;;;;0.30;0.28;;;-2.00;99.90;;;;;;5068644;28;20198;-86
2022/03/08 06:59:15;;;;;;;0.30;0.10;;;-2.00;99.90;;;;;;5061877;28;20274;-83
2022/03/08 07:01:41;;;;;;;2.05;0.90;;;-1.90;99.90;;;;;;5056156;28;20288;-87
2022/03/08 07:04:09;;;;;;;0.30;0.10;;;-1.80;99.90;;;;;;5048574;28;20242;-85
2022/03/08 07:06:35;;;;;;;0.40;0.30;;;-1.70;99.90;;;;;;5048055;28;20256;-88
2022/03/08 07:09:03;;;;;;;0.30;0.10;;;-1.60;99.90;;;;;;5048421;28;20236;-87
2022/03/08 07:11:31;;;;;;;0.30;0.10;;;-1.40;99.90;;;;;;5074143;28;20773;-87
2022/03/08 07:13:59;;;;;;;0.30;0.20;;;-1.20;99.90;;;;;;5076281;28;20417;-83
2022/03/08 07:16:26;;;;;;;0.40;0.40;;;-1.20;99.90;;;;;;5079844;28;20236;-83
2022/03/08 07:18:53;;;;;;;0.75;0.60;;;-1.00;99.90;;;;;;5078131;28;20202;-84
2022/03/08 07:21:20;;;;;;;0.30;0.10;;;-0.90;99.90;;;;;;5073416;28;20212;-85
2022/03/08 07:23:47;;;;;;;0.30;0.10;;;-0.80;99.90;;;;;;5071243;28;20231;-87
2022/03/08 07:26:14;;;;;;;2.60;0.43;;;-0.60;99.90;;;;;;5071190;28;20664;-86
2022/03/08 07:28:41;;;;;;;0.30;0.10;;;-0.60;99.70;;;;;;5071640;28;20207;-86
2022/03/08 07:31:12;;;;;;;0.30;0.10;;;-0.60;99.70;;;;;;5058247;28;20227;-85
2022/03/08 07:33:40;;;;;;;3.22;0.68;;;-0.40;99.20;;;;;;5050865;28;20190;-87
2022/03/08 07:36:08;;;;;;;0.40;0.32;;;-0.30;98.80;;;;;;5057708;28;20278;-86
2022/03/08 07:38:35;;;;;;;0.30;0.10;;;-0.20;98.90;;;;;;5058565;28;20285;-85
2022/03/08 07:41:02;;;;;;;0.43;0.40;;;-0.10;97.80;;;;;;5065752;28;20235;-88
2022/03/08 07:43:29;;;;;;;0.30;0.20;;;-0.20;97.50;;;;;;5068535;28;20265;-86
2022/03/08 07:45:56;;;;;;;0.30;0.10;;;-0.30;98.00;;;;;;5070502;28;20293;-88
2022/03/08 07:48:24;;;;;;;0.30;0.10;;;-0.40;98.30;;;;;;5062539;28;20261;-86
2022/03/08 07:50:51;;;;;;;0.30;0.10;;;-0.50;98.70;;;;;;5068239;28;20605;-85
2022/03/08 07:53:18;;;;;;;0.30;0.20;;;-0.70;99.40;;;;;;5088693;28;20227;-86
2022/03/08 07:55:46;;;;;;;0.30;0.10;;;-0.60;99.90;;;;;;5062131;28;20259;-86
2022/03/08 07:58:14;;;;;;;0.30;0.10;;;-0.50;99.70;;;;;;5075878;28;20213;-85
2022/03/08 08:00:42;;;;;;;0.55;0.30;;;-0.40;99.70;;;;;;5060430;28;20207;-84
2022/03/08 08:03:10;;;;;;;0.40;0.20;;;-0.50;99.90;;;;;;5070619;28;20617;-84
2022/03/08 08:05:39;;;;;;;1.90;1.80;;;-0.60;99.90;;;;;;5065074;28;20292;-83
2022/03/08 08:08:07;;;;;;;0.30;0.10;;;-0.60;99.80;;;;;;5070407;28;20261;-84
2022/03/08 08:10:35;;;;;;;0.30;0.20;;;-0.60;99.90;;;;;;5070753;28;20207;-84
2022/03/08 08:13:02;;;;;;;0.30;0.20;;;-0.60;99.70;;;;;;5071443;28;20406;-84
2022/03/08 08:15:29;;;;;;;2.47;0.65;;;-0.70;99.30;;;;;;5064612;28;20241;-85
2022/03/08 08:17:56;;;;;;;0.30;0.10;;;-0.70;99.90;;;;;;5069002;28;20271;-85
2022/03/08 08:20:23;;;;;;;0.30;0.20;;;-0.60;99.90;;;;;;5051369;28;20203;-83
2022/03/08 08:22:51;;;;;;;1.02;0.60;;;-0.50;99.70;;;;;;5070107;28;20238;-85
2022/03/08 08:25:18;;;;;;;0.30;0.10;;;-0.40;99.10;;;;;;5067937;28;20803;-86
2022/03/08 08:27:45;;;;;;;0.30;0.10;;;-0.20;98.80;;;;;;5072299;28;20214;-85
2022/03/08 08:30:13;;;;;;;0.30;0.10;;;0.00;98.10;;;;;;5069803;28;20211;-84
2022/03/08 08:32:40;;;;;;;0.30;0.10;;;0.30;97.30;;;;;;5064557;28;20700;-85
2022/03/08 08:35:08;;;;;;;0.30;0.10;;;0.40;96.00;;;;;;5068547;28;20659;-85
2022/03/08 08:37:36;;;;;;;0.30;0.20;;;0.60;96.50;;;;;;5066682;28;20204;-85
2022/03/08 08:40:05;;;;;;;0.30;0.10;;;0.80;95.30;;;;;;5063250;28;20592;-81
2022/03/08 08:42:32;;;;;;;0.30;0.10;;;1.10;95.10;;;;;;5064588;28;20694;-80
2022/03/08 08:44:59;;;;;;;0.30;0.10;;;1.20;94.40;;;;;;5066555;28;20461;-82
2022/03/08 08:47:27;;;;;;;0.40;0.35;;;1.40;93.70;;;;;;5069169;28;20194;-82
2022/03/08 08:49:54;;;;;;;0.50;0.40;;;1.60;93.10;;;;;;5066711;28;20205;-81
2022/03/08 08:52:21;;;;;;;1.10;1.10;;;1.70;92.10;;;;;;5062479;28;20515;-82
2022/03/08 08:54:48;;;;;;;0.40;0.20;;;1.80;91.90;;;;;;5081900;28;20306;-84
2022/03/08 08:57:16;;;;;;;0.30;0.10;;;2.10;91.70;;;;;;5079328;28;20220;-82
2022/03/08 08:59:43;;;;;;;0.30;0.10;;;2.00;91.00;;;;;;5063905;28;20468;-82
2022/03/08 09:02:10;;;;;;;0.73;0.70;;;2.00;92.10;;;;;;5050570;28;20228;-82
2022/03/08 09:04:37;;;;;;;0.30;0.10;;;2.20;91.30;;;;;;5060369;28;20522;-83
2022/03/08 09:07:05;;;;;;;0.30;0.20;;;2.20;91.20;;;;;;5049609;28;20532;-84
2022/03/08 09:09:32;;;;;;;0.30;0.20;;;2.50;91.90;;;;;;5058955;28;20456;-83
2022/03/08 09:11:59;;;;;;;0.47;0.47;;;2.80;91.10;;;;;;5050594;28;20483;-86
2022/03/08 09:14:28;;;;;;;0.30;0.10;;;3.00;90.80;;;;;;5062974;28;21244;-83
2022/03/08 09:16:55;;;;;;;0.30;0.10;;;3.00;89.80;;;;;;5068715;28;20500;-82
2022/03/08 09:19:22;;;;;;;4.10;0.50;;;2.80;87.30;;;;;;5069059;28;20497;-82
2022/03/08 09:21:49;;;;;;;0.30;0.20;;;2.80;88.00;;;;;;5052956;28;20471;-83
2022/03/08 09:24:16;;;;;;;0.30;0.10;;;2.80;86.60;;;;;;5049478;28;20553;-83
2022/03/08 09:26:43;;;;;;;0.40;0.33;;;2.90;85.20;;;;;;5059815;28;20454;-83
2022/03/08 09:29:10;;;;;;;0.50;0.33;;;2.90;86.50;;;;;;5057590;28;21233;-84
2022/03/08 09:31:38;;;;;;;3.13;1.80;;;2.90;85.80;;;;;;5048788;28;20509;-84
2022/03/08 09:34:05;;;;;;;0.30;0.10;;;3.00;86.30;;;;;;5049047;28;20518;-83
2022/03/08 09:36:32;;;;;;;0.30;0.20;;;3.00;85.10;;;;;;5057540;28;20471;-84
2022/03/08 09:38:59;;;;;;;0.90;0.90;;;2.90;84.50;;;;;;5062589;28;20566;-83
2022/03/08 09:41:26;;;;;;;1.43;1.33;;;3.00;85.10;;;;;;5048197;28;20538;-84
2022/03/08 09:43:54;;;;;;;0.30;0.20;;;3.10;84.90;;;;;;5062137;28;20564;-83
2022/03/08 09:46:21;;;;;;;0.30;0.20;;;3.10;84.70;;;;;;5060261;28;20471;-83
2022/03/08 09:48:50;;;;;;;0.73;0.73;;;3.30;83.90;;;;;;5068712;28;20456;-84
2022/03/08 09:51:17;;;;;;;0.30;0.13;;;3.50;83.50;;;;;;5067616;28;20818;-84
2022/03/08 09:53:45;;;;;;;3.93;0.47;;;3.80;82.80;;;;;;5069309;28;20479;-83
2022/03/08 09:56:13;;;;;;;0.30;0.10;;;4.00;82.30;;;;;;5062811;28;20569;-84
2022/03/08 09:58:40;;;;;;;0.30;0.10;;;4.00;78.20;;;;;;5068489;28;20514;-84
2022/03/08 10:01:07;;;;;;;0.30;0.20;;;4.20;79.60;;;;;;5067760;28;20534;-84
2022/03/08 10:03:38;;;;;;;0.30;0.10;;;4.50;78.00;;;;;;5068898;28;20456;-84
2022/03/08 10:06:07;;;;;;;0.30;0.20;;;4.50;78.70;;;;;;5059921;28;20460;-84
2022/03/08 10:08:35;;;;;;;0.30;0.10;;;4.60;76.20;;;;;;5070263;28;20459;-83
2022/03/08 10:11:03;;;;;;;0.30;0.20;;;4.50;74.60;;;;;;5068582;28;20453;-83
2022/03/08 10:13:33;;;;;;;0.30;0.10;;;4.50;75.10;;;;;;5055356;28;20822;-84
2022/03/08 10:16:09;;;;;;;0.30;0.10;;;4.50;78.30;;;;;;5061391;28;20507;-84
2022/03/08 10:18:38;;;;;;;0.30;0.20;;;4.50;75.30;;;;;;5063120;28;20468;-83
2022/03/08 10:21:29;;;;;;;0.30;0.13;;;4.60;76.00;;;;;;5047919;28;21133;-83
2022/03/08 10:23:57;;;;;;;0.30;0.10;;;4.90;77.10;;;;;;5059757;28;20463;-84
2022/03/08 10:26:24;;;;;;;0.30;0.17;;;4.90;75.70;;;;;;5068312;28;20451;-84
2022/03/08 10:28:53;;;;;;;0.30;0.10;;;5.10;77.00;;;;;;5055538;28;20885;-84
2022/03/08 10:31:20;;;;;;;0.70;0.63;;;4.80;74.90;;;;;;5049685;28;20515;-84
2022/03/08 10:33:48;;;;;;;0.47;0.20;;;4.90;75.70;;;;;;5066307;28;21358;-84
2022/03/08 10:36:20;;;;;;;0.30;0.20;;;4.90;74.80;;;;;;5066071;28;20525;-84
2022/03/08 10:39:08;;;;;;;0.30;0.20;;;4.90;75.00;;;;;;5047850;28;20459;-83
2022/03/08 10:41:40;;;;;;;0.40;0.20;;;5.00;75.20;;;;;;5058728;28;20480;-84
2022/03/08 10:44:07;;;;;;;0.30;0.10;;;5.20;76.00;;;;;;5065069;28;21036;-83
2022/03/08 10:46:34;;;;;;;0.30;0.10;;;5.30;74.80;;;;;;5064518;28;20466;-83
2022/03/08 10:49:11;;;;;;;0.30;0.20;;;5.50;76.00;;;;;;5048215;28;20469;-84
2022/03/08 10:51:40;;;;;;;0.30;0.20;;;5.50;73.50;;;;;;5062997;28;20440;-84
2022/03/08 10:54:14;;;;;;;0.30;0.10;;;5.80;75.60;;;;;;5071170;28;20985;-83
2022/03/08 10:56:46;;;;;;;0.30;0.20;;;5.70;74.70;;;;;;5054218;28;20467;-84
2022/03/08 10:59:15;;;;;;;0.30;0.10;;;6.00;75.10;;;;;;5071614;28;20448;-84
2022/03/08 11:01:43;;;;;;;0.30;0.20;;;6.30;73.70;;;;;;5064767;28;20626;-84
2022/03/08 11:04:19;;;;;;;0.40;0.40;;;6.40;69.50;;;;;;5080019;28;20449;-83
2022/03/08 11:06:50;;;;;;;0.40;0.20;;;6.40;66.60;;;;;;5075971;28;21131;-84
2022/03/08 11:09:18;;;;;;;0.30;0.10;;;6.20;63.10;;;;;;5064841;28;20510;-83
2022/03/08 11:11:45;;;;;;;0.30;0.20;;;6.50;64.70;;;;;;5063987;28;20451;-84
2022/03/08 11:14:13;;;;;;;0.30;0.20;;;6.70;64.70;;;;;;5058539;28;20488;-84
2022/03/08 11:16:41;;;;;;;0.30;0.20;;;6.80;62.80;;;;;;5060158;28;20538;-83
2022/03/08 11:19:11;;;;;;;0.30;0.20;;;6.90;64.20;;;;;;5067966;28;20453;-82
2022/03/08 11:21:38;;;;;;;0.30;0.20;;;6.70;62.40;;;;;;5071887;28;20480;-85
2022/03/08 11:24:09;;;;;;;3.07;1.13;;;6.70;61.40;;;;;;5072533;28;20502;-84
2022/03/08 11:26:37;;;;;;;0.30;0.20;;;6.90;64.20;;;;;;5089062;28;20447;-85
2022/03/08 11:29:05;;;;;;;0.30;0.10;;;7.00;65.20;;;;;;5071541;28;20476;-84
2022/03/08 11:31:37;;;;;;;0.30;0.17;;;6.60;62.30;;;;;;5070947;28;20939;-84
2022/03/08 11:34:11;;;;;;;0.40;0.30;;;6.30;64.30;;;;;;5052683;28;20524;-83
2022/03/08 11:36:39;;;;;;;0.90;0.53;;;6.40;64.20;;;;;;5062277;28;20459;-84
2022/03/08 11:39:29;;;;;;;0.30;0.10;;;6.60;63.40;;;;;;5056517;28;20526;-84
2022/03/08 11:41:57;;;;;;;0.30;0.10;;;7.00;63.80;;;;;;5069411;28;20495;-84
2022/03/08 11:44:28;;;;;;;0.50;0.20;;;6.70;62.00;;;;;;5061692;28;20487;-86
2022/03/08 11:47:14;;;;;;;0.60;0.33;;;7.10;63.80;;;;;;5071068;28;20443;-86
2022/03/08 11:49:47;;;;;;;0.30;0.10;;;7.20;62.80;;;;;;5069813;28;20500;-84
2022/03/08 11:52:17;;;;;;;0.30;0.10;;;7.20;60.90;;;;;;5070886;28;20458;-84
2022/03/08 11:54:55;;;;;;;0.30;0.17;;;7.10;59.90;;;;;;5061602;28;20467;-84
2022/03/08 11:57:56;;;;;;;0.30;0.20;;;7.30;60.40;;;;;;5059194;28;20527;-84
2022/03/08 12:00:26;;;;;;;0.30;0.20;;;7.50;60.40;;;;;;5048371;28;20964;-83
2022/03/08 12:02:55;;;;;;;0.30;0.20;;;7.40;59.30;;;;;;5057606;28;20470;-85
2022/03/08 12:05:57;;;;;;;0.30;0.20;;;7.30;59.30;;;;;;5048722;28;20513;-84
2022/03/08 12:08:44;;;;;;;0.30;0.20;;;7.20;60.40;;;;;;5063342;28;20595;-86
2022/03/08 12:11:32;;;;;;;0.30;0.20;;;7.10;59.20;;;;;;5062604;28;20978;-86
2022/03/08 12:14:02;;;;;;;0.30;0.20;;;7.00;59.50;;;;;;5053209;28;20569;-86
2022/03/08 12:16:29;;;;;;;4.03;0.43;;;6.90;59.30;;;;;;5067982;28;20535;-86
2022/03/08 12:18:58;;;;;;;0.30;0.20;;;7.30;59.10;;;;;;5070694;28;20467;-86
2022/03/08 12:21:46;;;;;;;0.40;0.20;;;7.40;58.20;;;;;;5069152;28;20466;-85
2022/03/08 12:24:21;;;;;;;0.30;0.20;;;7.40;57.80;;;;;;5073916;28;20941;-84
2022/03/08 12:27:01;;;;;;;0.40;0.23;;;7.00;58.40;;;;;;5084336;28;20481;-84
2022/03/08 12:29:30;;;;;;;0.30;0.13;;;6.90;58.30;;;;;;5067909;28;20465;-84
2022/03/08 12:32:32;;;;;;;0.40;0.20;;;6.60;59.30;;;;;;5070293;28;20439;-84
2022/03/08 12:35:06;;;;;;;0.30;0.10;;;6.90;59.50;;;;;;5069604;28;21020;-84
2022/03/08 12:37:40;;;;;;;0.30;0.20;;;7.40;60.00;;;;;;5069736;28;20491;-84
2022/03/08 12:40:09;;;;;;;0.47;0.47;;;7.70;58.40;;;;;;5070297;28;20451;-86
2022/03/08 12:42:40;;;;;;;0.40;0.30;;;7.90;58.10;;;;;;5070467;28;20458;-84
2022/03/08 12:45:09;;;;;;;0.30;0.10;;;7.80;57.20;;;;;;5067167;28;20523;-84
2022/03/08 12:47:39;;;;;;;0.70;0.30;;;7.70;58.40;;;;;;5061834;28;20446;-84
2022/03/08 12:50:10;;;;;;;0.30;0.20;;;7.90;58.20;;;;;;5051748;28;20475;-84
2022/03/08 12:52:43;;;;;;;0.33;0.23;;;8.00;57.40;;;;;;5049458;28;20472;-84
2022/03/08 12:55:13;;;;;;;0.87;0.87;;;7.70;56.30;;;;;;5050690;28;20468;-84
2022/03/08 12:57:49;;;;;;;0.30;0.20;;;7.70;58.00;;;;;;5055862;28;20485;-84